createdAt,value
2017-06-09T00:00:05.609Z,23.04
2017-06-09T00:00:33.963Z,23.01
2017-06-09T00:01:02.340Z,22.98
2017-06-09T00:02:13.547Z,22.99
2017-06-09T00:02:41.657Z,22.99
2017-06-09T00:03:09.709Z,22.99
2017-06-09T00:03:38.037Z,23.01
2017-06-09T00:04:06.362Z,23.01
2017-06-09T00:04:34.657Z,23.01
2017-06-09T00:05:02.984Z,22.99
2017-06-09T00:05:31.276Z,22.96
2017-06-09T00:05:59.419Z,22.96
2017-06-09T00:06:27.662Z,22.98
2017-06-09T00:06:55.843Z,23.01
2017-06-09T00:08:07.131Z,22.96
2017-06-09T00:08:35.432Z,22.99
2017-06-09T00:09:03.770Z,22.99
2017-06-09T00:09:32.000Z,22.99
2017-06-09T00:10:00.330Z,22.96
2017-06-09T00:10:28.622Z,22.91
2017-06-09T00:10:56.949Z,22.98
2017-06-09T00:11:25.143Z,22.99
2017-06-09T00:11:53.475Z,22.95
2017-06-09T00:12:21.722Z,22.92
2017-06-09T00:12:50.085Z,22.96
2017-06-09T00:14:01.380Z,22.88
2017-06-09T00:14:29.677Z,22.93
2017-06-09T00:14:57.920Z,22.92
2017-06-09T00:15:26.255Z,22.93
2017-06-09T00:15:54.483Z,22.92
2017-06-09T00:16:22.686Z,22.91
2017-06-09T00:16:51.013Z,22.91
2017-06-09T00:17:19.205Z,22.91
2017-06-09T00:17:47.534Z,22.92
2017-06-09T00:18:15.777Z,22.89
2017-06-09T00:18:44.147Z,22.92
2017-06-09T00:19:55.340Z,22.95
2017-06-09T00:20:23.639Z,22.88
2017-06-09T00:20:51.886Z,22.91
2017-06-09T00:21:20.086Z,22.88
2017-06-09T00:21:48.318Z,22.91
2017-06-09T00:22:16.610Z,22.88
2017-06-09T00:22:44.845Z,22.86
2017-06-09T00:23:12.947Z,22.81
2017-06-09T00:23:41.273Z,22.89
2017-06-09T00:24:09.424Z,22.89
2017-06-09T00:24:37.708Z,22.89
2017-06-09T00:25:48.999Z,22.98
2017-06-09T00:26:17.209Z,22.83
2017-06-09T00:26:45.548Z,22.85
2017-06-09T00:27:13.872Z,22.89
2017-06-09T00:27:42.019Z,22.81
2017-06-09T00:28:10.203Z,22.83
2017-06-09T00:28:38.515Z,22.83
2017-06-09T00:29:06.701Z,22.88
2017-06-09T00:29:35.042Z,22.86
2017-06-09T00:30:03.382Z,22.88
2017-06-09T00:30:31.753Z,22.89
2017-06-09T00:31:43.037Z,22.83
2017-06-09T00:32:11.341Z,22.86
2017-06-09T00:32:39.582Z,22.89
2017-06-09T00:33:07.817Z,22.86
2017-06-09T00:33:35.952Z,22.88
2017-06-09T00:34:04.240Z,22.83
2017-06-09T00:34:32.376Z,22.83
2017-06-09T00:35:00.470Z,22.73
2017-06-09T00:35:28.711Z,22.8
2017-06-09T00:35:57.053Z,22.8
2017-06-09T00:36:25.237Z,22.83
2017-06-09T00:37:36.620Z,22.93
2017-06-09T00:38:04.825Z,22.88
2017-06-09T00:38:33.072Z,22.91
2017-06-09T00:39:01.404Z,22.86
2017-06-09T00:39:29.636Z,22.91
2017-06-09T00:39:57.930Z,22.88
2017-06-09T00:40:26.253Z,22.86
2017-06-09T00:40:54.540Z,22.81
2017-06-09T00:41:22.872Z,22.81
2017-06-09T00:41:51.214Z,22.85
2017-06-09T00:42:19.402Z,22.86
2017-06-09T00:43:30.783Z,22.78
2017-06-09T00:43:59.082Z,22.86
2017-06-09T00:44:27.326Z,22.86
2017-06-09T00:44:55.460Z,22.86
2017-06-09T00:45:23.783Z,22.89
2017-06-09T00:45:51.980Z,22.88
2017-06-09T00:46:20.306Z,22.81
2017-06-09T00:46:48.594Z,22.85
2017-06-09T00:47:16.923Z,22.89
2017-06-09T00:47:45.171Z,22.98
2017-06-09T00:48:13.431Z,22.95
2017-06-09T00:49:24.819Z,22.89
2017-06-09T00:49:53.119Z,22.93
2017-06-09T00:50:21.457Z,22.92
2017-06-09T00:50:49.785Z,22.92
2017-06-09T00:51:18.109Z,22.91
2017-06-09T00:51:46.396Z,22.95
2017-06-09T00:52:14.635Z,22.91
2017-06-09T00:52:42.735Z,22.89
2017-06-09T00:53:10.941Z,22.92
2017-06-09T00:53:39.151Z,22.88
2017-06-09T00:54:07.385Z,22.91
2017-06-09T00:55:18.632Z,23.01
2017-06-09T00:55:46.804Z,22.91
2017-06-09T00:56:15.108Z,22.91
2017-06-09T00:56:43.401Z,22.88
2017-06-09T00:57:11.700Z,22.88
2017-06-09T00:57:39.968Z,22.86
2017-06-09T00:58:08.174Z,22.88
2017-06-09T00:58:36.335Z,22.86
2017-06-09T00:59:04.528Z,22.88
2017-06-09T00:59:32.846Z,22.85
2017-06-09T01:00:01.186Z,22.85
2017-06-09T01:01:12.439Z,22.83
2017-06-09T01:01:40.556Z,22.78
2017-06-09T01:02:08.794Z,22.89
2017-06-09T01:02:36.951Z,22.83
2017-06-09T01:03:05.087Z,22.77
2017-06-09T01:03:33.376Z,22.81
2017-06-09T01:04:01.616Z,22.78
2017-06-09T01:04:29.810Z,22.74
2017-06-09T01:04:58.038Z,22.81
2017-06-09T01:05:26.286Z,22.74
2017-06-09T01:05:54.562Z,22.88
2017-06-09T01:07:05.667Z,22.89
2017-06-09T01:07:33.884Z,22.81
2017-06-09T01:08:02.221Z,22.8
2017-06-09T01:08:30.469Z,22.74
2017-06-09T01:08:58.698Z,22.77
2017-06-09T01:09:26.984Z,22.77
2017-06-09T01:09:55.225Z,22.76
2017-06-09T01:10:23.420Z,22.88
2017-06-09T01:10:51.754Z,22.77
2017-06-09T01:11:19.907Z,22.77
2017-06-09T01:11:48.092Z,22.81
2017-06-09T01:12:59.392Z,22.74
2017-06-09T01:13:27.704Z,22.85
2017-06-09T01:13:55.666Z,22.81
2017-06-09T01:14:23.900Z,22.73
2017-06-09T01:14:52.130Z,22.91
2017-06-09T01:15:20.139Z,22.78
2017-06-09T01:15:48.278Z,22.77
2017-06-09T01:16:16.573Z,22.81
2017-06-09T01:16:44.911Z,22.78
2017-06-09T01:17:13.264Z,22.77
2017-06-09T01:17:41.639Z,22.8
2017-06-09T01:18:52.935Z,22.8
2017-06-09T01:19:21.234Z,22.76
2017-06-09T01:19:49.477Z,22.7
2017-06-09T01:20:17.779Z,22.74
2017-06-09T01:20:45.976Z,22.76
2017-06-09T01:21:14.213Z,22.78
2017-06-09T01:21:42.491Z,22.71
2017-06-09T01:22:10.742Z,22.78
2017-06-09T01:22:38.941Z,22.78
2017-06-09T01:23:07.171Z,22.73
2017-06-09T01:23:35.505Z,22.78
2017-06-09T01:24:46.826Z,22.81
2017-06-09T01:25:14.903Z,22.8
2017-06-09T01:25:43.094Z,22.74
2017-06-09T01:26:11.182Z,22.76
2017-06-09T01:26:39.366Z,22.68
2017-06-09T01:27:07.610Z,22.76
2017-06-09T01:27:35.811Z,22.73
2017-06-09T01:28:04.049Z,22.68
2017-06-09T01:28:32.240Z,22.71
2017-06-09T01:29:00.457Z,22.76
2017-06-09T01:29:28.753Z,22.67
2017-06-09T01:30:40.047Z,22.68
2017-06-09T01:31:08.161Z,22.71
2017-06-09T01:31:36.313Z,22.73
2017-06-09T01:32:04.644Z,22.67
2017-06-09T01:32:32.964Z,22.66
2017-06-09T01:33:01.155Z,22.7
2017-06-09T01:33:29.389Z,22.74
2017-06-09T01:33:57.587Z,22.71
2017-06-09T01:34:25.831Z,22.67
2017-06-09T01:34:54.082Z,22.7
2017-06-09T01:35:22.360Z,22.73
2017-06-09T01:36:33.646Z,22.64
2017-06-09T01:37:01.855Z,22.68
2017-06-09T01:37:30.190Z,22.66
2017-06-09T01:37:58.532Z,22.68
2017-06-09T01:38:26.875Z,22.7
2017-06-09T01:38:55.084Z,22.68
2017-06-09T01:39:23.408Z,22.59
2017-06-09T01:39:51.588Z,22.56
2017-06-09T01:40:19.891Z,22.64
2017-06-09T01:40:48.096Z,22.64
2017-06-09T01:41:16.331Z,22.66
2017-06-09T01:42:27.655Z,22.64
2017-06-09T01:42:55.814Z,22.62
2017-06-09T01:43:23.827Z,22.58
2017-06-09T01:43:52.123Z,22.56
2017-06-09T01:44:20.406Z,22.56
2017-06-09T01:44:48.678Z,22.56
2017-06-09T01:45:16.873Z,22.53
2017-06-09T01:45:45.014Z,22.56
2017-06-09T01:46:13.290Z,22.62
2017-06-09T01:46:41.612Z,22.51
2017-06-09T01:47:09.939Z,22.53
2017-06-09T01:48:21.178Z,22.53
2017-06-09T01:48:49.439Z,22.53
2017-06-09T01:49:17.634Z,22.56
2017-06-09T01:49:45.822Z,22.52
2017-06-09T01:50:14.098Z,22.51
2017-06-09T01:50:42.340Z,22.55
2017-06-09T01:51:10.469Z,22.61
2017-06-09T01:51:38.666Z,22.53
2017-06-09T01:52:06.883Z,22.56
2017-06-09T01:52:35.081Z,22.55
2017-06-09T01:53:03.327Z,22.56
2017-06-09T01:54:14.651Z,22.59
2017-06-09T01:54:42.914Z,22.52
2017-06-09T01:55:11.031Z,22.66
2017-06-09T01:55:39.215Z,22.51
2017-06-09T01:56:07.396Z,22.53
2017-06-09T01:56:35.637Z,22.53
2017-06-09T01:57:03.914Z,22.61
2017-06-09T01:57:32.190Z,22.51
2017-06-09T01:58:00.336Z,22.53
2017-06-09T01:58:28.682Z,22.61
2017-06-09T01:58:56.953Z,22.56
2017-06-09T02:00:08.149Z,22.61
2017-06-09T02:00:36.328Z,22.53
2017-06-09T02:01:04.530Z,22.53
2017-06-09T02:01:32.716Z,22.53
2017-06-09T02:02:00.802Z,22.53
2017-06-09T02:02:28.789Z,22.52
2017-06-09T02:02:56.975Z,22.49
2017-06-09T02:03:25.068Z,22.53
2017-06-09T02:03:53.258Z,22.53
2017-06-09T02:04:21.551Z,22.51
2017-06-09T02:04:49.683Z,22.56
2017-06-09T02:06:00.834Z,22.53
2017-06-09T02:06:29.092Z,22.56
2017-06-09T02:06:57.288Z,22.53
2017-06-09T02:07:25.566Z,22.52
2017-06-09T02:07:53.847Z,22.51
2017-06-09T02:08:22.078Z,22.48
2017-06-09T02:08:50.361Z,22.49
2017-06-09T02:09:18.412Z,22.55
2017-06-09T02:09:46.598Z,22.51
2017-06-09T02:10:14.711Z,22.44
2017-06-09T02:10:42.847Z,22.48
2017-06-09T02:11:54.172Z,22.46
2017-06-09T02:12:22.240Z,22.49
2017-06-09T02:12:50.529Z,22.49
2017-06-09T02:13:18.710Z,22.49
2017-06-09T02:13:47.015Z,22.48
2017-06-09T02:14:15.303Z,22.44
2017-06-09T02:14:43.633Z,22.41
2017-06-09T02:15:11.825Z,22.41
2017-06-09T02:15:40.060Z,22.49
2017-06-09T02:16:08.401Z,22.44
2017-06-09T02:16:36.670Z,22.44
2017-06-09T02:17:47.962Z,22.48
2017-06-09T02:18:16.171Z,22.41
2017-06-09T02:18:44.461Z,22.41
2017-06-09T02:19:12.679Z,22.44
2017-06-09T02:19:40.955Z,22.38
2017-06-09T02:20:09.077Z,22.34
2017-06-09T02:20:37.165Z,22.36
2017-06-09T02:21:05.217Z,22.33
2017-06-09T02:21:33.503Z,22.33
2017-06-09T02:22:01.706Z,22.41
2017-06-09T02:22:29.848Z,22.38
2017-06-09T02:23:41.175Z,22.36
2017-06-09T02:24:09.333Z,22.37
2017-06-09T02:24:37.557Z,22.28
2017-06-09T02:25:05.858Z,22.33
2017-06-09T02:25:34.136Z,22.34
2017-06-09T02:26:02.200Z,22.4
2017-06-09T02:26:30.325Z,22.33
2017-06-09T02:26:58.557Z,22.38
2017-06-09T02:27:26.754Z,22.4
2017-06-09T02:27:54.961Z,22.31
2017-06-09T02:28:23.283Z,22.34
2017-06-09T02:29:34.530Z,22.31
2017-06-09T02:30:02.730Z,22.28
2017-06-09T02:30:30.789Z,22.33
2017-06-09T02:30:58.930Z,22.31
2017-06-09T02:31:27.245Z,22.3
2017-06-09T02:31:55.516Z,22.3
2017-06-09T02:32:23.707Z,22.34
2017-06-09T02:32:51.661Z,22.36
2017-06-09T02:33:19.851Z,22.3
2017-06-09T02:33:48.048Z,22.28
2017-06-09T02:34:16.204Z,22.31
2017-06-09T02:35:27.436Z,22.34
2017-06-09T02:35:55.498Z,22.36
2017-06-09T02:36:23.695Z,22.4
2017-06-09T02:36:51.875Z,22.34
2017-06-09T02:37:20.145Z,22.36
2017-06-09T02:37:48.386Z,22.36
2017-06-09T02:38:16.570Z,22.36
2017-06-09T02:38:44.434Z,22.48
2017-06-09T02:39:12.638Z,22.44
2017-06-09T02:39:40.892Z,22.44
2017-06-09T02:40:08.970Z,22.43
2017-06-09T02:41:20.260Z,22.44
2017-06-09T02:41:48.560Z,22.46
2017-06-09T02:42:16.768Z,22.49
2017-06-09T02:42:45.045Z,22.52
2017-06-09T02:43:13.228Z,22.41
2017-06-09T02:43:41.406Z,22.49
2017-06-09T02:44:09.721Z,22.43
2017-06-09T02:44:37.919Z,22.48
2017-06-09T02:45:06.140Z,22.51
2017-06-09T02:45:34.290Z,22.46
2017-06-09T02:46:02.574Z,22.44
2017-06-09T02:47:13.957Z,22.46
2017-06-09T02:47:42.244Z,22.53
2017-06-09T02:48:10.455Z,22.44
2017-06-09T02:48:38.732Z,22.49
2017-06-09T02:49:06.814Z,22.51
2017-06-09T02:49:35.086Z,22.49
2017-06-09T02:50:03.206Z,22.49
2017-06-09T02:50:31.470Z,22.51
2017-06-09T02:50:59.695Z,22.53
2017-06-09T02:51:27.799Z,22.4
2017-06-09T02:51:55.842Z,22.46
2017-06-09T02:53:07.179Z,22.46
2017-06-09T02:53:35.431Z,22.48
2017-06-09T02:54:03.723Z,22.4
2017-06-09T02:54:32.004Z,22.4
2017-06-09T02:55:00.179Z,22.41
2017-06-09T02:55:28.420Z,22.38
2017-06-09T02:55:56.611Z,22.36
2017-06-09T02:56:24.717Z,22.38
2017-06-09T02:56:53.050Z,22.37
2017-06-09T02:57:21.300Z,22.38
2017-06-09T02:57:49.679Z,22.38
2017-06-09T02:59:00.877Z,22.38
2017-06-09T02:59:29.171Z,22.37
2017-06-09T02:59:57.418Z,22.33
2017-06-09T03:00:25.735Z,22.34
2017-06-09T03:00:53.961Z,22.34
2017-06-09T03:01:22.247Z,22.31
2017-06-09T03:01:50.473Z,22.3
2017-06-09T03:02:18.667Z,22.34
2017-06-09T03:02:47.003Z,22.33
2017-06-09T03:03:15.251Z,22.28
2017-06-09T03:03:43.540Z,22.37
2017-06-09T03:04:54.927Z,22.27
2017-06-09T03:05:22.950Z,22.3
2017-06-09T03:05:51.199Z,22.22
2017-06-09T03:06:19.520Z,22.28
2017-06-09T03:06:47.751Z,22.28
2017-06-09T03:07:15.949Z,22.21
2017-06-09T03:07:44.175Z,22.28
2017-06-09T03:08:12.367Z,22.27
2017-06-09T03:08:40.694Z,22.21
2017-06-09T03:09:08.845Z,22.27
2017-06-09T03:09:37.125Z,22.21
2017-06-09T03:10:48.416Z,22.25
2017-06-09T03:11:16.621Z,22.21
2017-06-09T03:11:44.782Z,22.22
2017-06-09T03:12:13.008Z,22.18
2017-06-09T03:12:41.235Z,22.18
2017-06-09T03:13:09.523Z,22.19
2017-06-09T03:13:37.847Z,22.21
2017-06-09T03:14:05.947Z,22.19
2017-06-09T03:14:34.092Z,22.23
2017-06-09T03:15:02.334Z,22.25
2017-06-09T03:15:30.520Z,22.21
2017-06-09T03:16:41.904Z,22.31
2017-06-09T03:17:10.203Z,22.23
2017-06-09T03:17:38.445Z,22.19
2017-06-09T03:18:06.771Z,22.19
2017-06-09T03:18:35.100Z,22.16
2017-06-09T03:19:03.302Z,22.16
2017-06-09T03:19:31.346Z,22.22
2017-06-09T03:19:59.447Z,22.19
2017-06-09T03:20:27.778Z,22.18
2017-06-09T03:20:56.024Z,22.22
2017-06-09T03:21:24.302Z,22.16
2017-06-09T03:22:35.686Z,22.16
2017-06-09T03:23:03.801Z,22.12
2017-06-09T03:23:32.045Z,22.19
2017-06-09T03:24:00.275Z,22.07
2017-06-09T03:24:28.504Z,22.16
2017-06-09T03:24:56.793Z,22.13
2017-06-09T03:25:25.124Z,22.11
2017-06-09T03:25:53.324Z,22.19
2017-06-09T03:26:21.466Z,22.13
2017-06-09T03:26:49.804Z,22.13
2017-06-09T03:27:18.176Z,22.21
2017-06-09T03:28:29.469Z,22.11
2017-06-09T03:28:57.770Z,22.12
2017-06-09T03:29:26.008Z,22.07
2017-06-09T03:29:54.240Z,22.13
2017-06-09T03:30:22.566Z,22.04
2017-06-09T03:30:50.759Z,22.15
2017-06-09T03:31:18.796Z,22.09
2017-06-09T03:31:46.805Z,22.07
2017-06-09T03:32:14.946Z,22.15
2017-06-09T03:32:43.195Z,22.07
2017-06-09T03:33:11.285Z,22.06
2017-06-09T03:34:22.667Z,22.15
2017-06-09T03:34:50.877Z,22.11
2017-06-09T03:35:19.215Z,22.07
2017-06-09T03:35:47.445Z,22.12
2017-06-09T03:36:15.676Z,22.07
2017-06-09T03:36:43.963Z,22.13
2017-06-09T03:37:12.285Z,22.06
2017-06-09T03:37:40.483Z,22.06
2017-06-09T03:38:08.812Z,22.03
2017-06-09T03:38:36.962Z,22.04
2017-06-09T03:39:05.241Z,22.11
2017-06-09T03:40:16.538Z,22.07
2017-06-09T03:40:44.647Z,22.07
2017-06-09T03:41:12.985Z,22.03
2017-06-09T03:41:41.213Z,22.09
2017-06-09T03:42:09.531Z,22.06
2017-06-09T03:42:37.816Z,22.03
2017-06-09T03:43:06.045Z,22.09
2017-06-09T03:43:34.148Z,22.07
2017-06-09T03:44:02.385Z,22.11
2017-06-09T03:44:30.538Z,22.03
2017-06-09T03:44:58.725Z,22.04
2017-06-09T03:46:09.918Z,22.07
2017-06-09T03:46:38.052Z,22.06
2017-06-09T03:47:06.184Z,22.03
2017-06-09T03:47:34.504Z,22.01
2017-06-09T03:48:02.827Z,22.07
2017-06-09T03:48:30.835Z,22
2017-06-09T03:48:59.059Z,22.07
2017-06-09T03:49:27.252Z,22.09
2017-06-09T03:49:55.396Z,22.07
2017-06-09T03:50:23.640Z,22.03
2017-06-09T03:50:51.917Z,22.11
2017-06-09T03:52:03.208Z,22.07
2017-06-09T03:52:31.420Z,22.09
2017-06-09T03:52:59.568Z,22.04
2017-06-09T03:53:27.794Z,22.12
2017-06-09T03:53:56.115Z,22.15
2017-06-09T03:54:24.307Z,22.16
2017-06-09T03:54:52.443Z,22.18
2017-06-09T03:55:20.723Z,22.03
2017-06-09T03:55:49.056Z,22.11
2017-06-09T03:56:17.210Z,22.16
2017-06-09T03:56:45.394Z,22.21
2017-06-09T03:57:56.595Z,22.13
2017-06-09T03:58:24.710Z,22.18
2017-06-09T03:58:52.857Z,22.15
2017-06-09T03:59:21.174Z,22.21
2017-06-09T03:59:49.497Z,22.15
2017-06-09T04:00:17.790Z,22.18
2017-06-09T04:00:45.934Z,22.15
2017-06-09T04:01:14.041Z,22.09
2017-06-09T04:01:42.190Z,22.18
2017-06-09T04:02:10.531Z,22.12
2017-06-09T04:02:38.812Z,22.13
2017-06-09T04:03:50.195Z,22.18
2017-06-09T04:04:18.404Z,22.15
2017-06-09T04:04:46.548Z,22.19
2017-06-09T04:05:14.775Z,22.16
2017-06-09T04:05:43.010Z,22.15
2017-06-09T04:06:11.210Z,22.21
2017-06-09T04:06:39.440Z,22.18
2017-06-09T04:07:07.633Z,22.16
2017-06-09T04:07:35.870Z,22.04
2017-06-09T04:08:04.212Z,22.18
2017-06-09T04:08:32.490Z,22.15
2017-06-09T04:09:43.689Z,22.15
2017-06-09T04:10:11.989Z,22.12
2017-06-09T04:10:40.325Z,22.13
2017-06-09T04:11:08.558Z,22.22
2017-06-09T04:11:36.885Z,22.15
2017-06-09T04:12:05.179Z,22.03
2017-06-09T04:12:33.509Z,22.11
2017-06-09T04:13:01.604Z,22.13
2017-06-09T04:13:29.940Z,22.13
2017-06-09T04:13:58.187Z,22.11
2017-06-09T04:14:26.470Z,22.21
2017-06-09T04:15:37.856Z,22.07
2017-06-09T04:16:06.067Z,22.09
2017-06-09T04:16:34.325Z,22.09
2017-06-09T04:17:02.556Z,22.09
2017-06-09T04:17:30.781Z,22.06
2017-06-09T04:17:58.979Z,22.06
2017-06-09T04:18:27.211Z,22.11
2017-06-09T04:18:55.403Z,22.06
2017-06-09T04:19:23.647Z,22.06
2017-06-09T04:19:51.985Z,22.01
2017-06-09T04:20:20.168Z,22.11
2017-06-09T04:21:31.555Z,22.04
2017-06-09T04:21:59.854Z,22.11
2017-06-09T04:22:28.094Z,22.07
2017-06-09T04:22:56.422Z,22.01
2017-06-09T04:23:24.657Z,22.04
2017-06-09T04:23:52.854Z,22.09
2017-06-09T04:24:21.091Z,22.03
2017-06-09T04:24:49.380Z,22.06
2017-06-09T04:25:17.531Z,22.03
2017-06-09T04:25:45.874Z,22.01
2017-06-09T04:26:14.249Z,22.01
2017-06-09T04:27:25.635Z,22.07
2017-06-09T04:27:53.841Z,22.03
2017-06-09T04:28:22.086Z,22
2017-06-09T04:28:50.418Z,21.94
2017-06-09T04:29:18.660Z,22.01
2017-06-09T04:29:46.772Z,22
2017-06-09T04:30:15.000Z,22.03
2017-06-09T04:30:43.010Z,21.96
2017-06-09T04:31:11.339Z,22
2017-06-09T04:31:39.679Z,22
2017-06-09T04:32:08.052Z,22.03
2017-06-09T04:33:19.439Z,22.03
2017-06-09T04:33:47.507Z,22.01
2017-06-09T04:34:15.660Z,21.96
2017-06-09T04:34:43.980Z,22
2017-06-09T04:35:12.213Z,21.97
2017-06-09T04:35:40.504Z,21.97
2017-06-09T04:36:08.834Z,21.97
2017-06-09T04:36:37.055Z,22
2017-06-09T04:37:05.275Z,22.01
2017-06-09T04:37:33.526Z,22
2017-06-09T04:38:01.901Z,21.96
2017-06-09T04:39:13.193Z,21.94
2017-06-09T04:39:41.493Z,21.98
2017-06-09T04:40:09.829Z,22
2017-06-09T04:40:38.065Z,21.96
2017-06-09T04:41:06.389Z,21.96
2017-06-09T04:41:34.685Z,21.98
2017-06-09T04:42:03.016Z,21.97
2017-06-09T04:42:31.310Z,21.96
2017-06-09T04:42:59.636Z,21.97
2017-06-09T04:43:27.973Z,22.04
2017-06-09T04:43:56.253Z,21.85
2017-06-09T04:45:07.545Z,21.9
2017-06-09T04:45:35.846Z,21.9
2017-06-09T04:46:03.997Z,21.9
2017-06-09T04:46:32.228Z,21.91
2017-06-09T04:47:00.560Z,21.84
2017-06-09T04:47:28.853Z,21.91
2017-06-09T04:47:57.085Z,21.93
2017-06-09T04:48:25.374Z,21.9
2017-06-09T04:48:53.711Z,21.85
2017-06-09T04:49:21.962Z,21.81
2017-06-09T04:49:50.249Z,21.93
2017-06-09T04:51:01.542Z,21.9
2017-06-09T04:51:29.841Z,21.85
2017-06-09T04:51:58.086Z,21.82
2017-06-09T04:52:26.225Z,21.81
2017-06-09T04:52:54.460Z,21.85
2017-06-09T04:53:22.649Z,21.88
2017-06-09T04:53:50.881Z,21.85
2017-06-09T04:54:19.073Z,21.77
2017-06-09T04:54:47.407Z,21.88
2017-06-09T04:55:15.738Z,21.84
2017-06-09T04:55:44.117Z,21.81
2017-06-09T04:56:55.408Z,21.8
2017-06-09T04:57:23.525Z,21.78
2017-06-09T04:57:51.859Z,21.78
2017-06-09T04:58:19.998Z,21.82
2017-06-09T04:58:48.174Z,21.77
2017-06-09T04:59:16.460Z,21.82
2017-06-09T04:59:44.685Z,21.8
2017-06-09T05:00:12.992Z,21.82
2017-06-09T05:00:41.323Z,21.77
2017-06-09T05:01:09.665Z,21.78
2017-06-09T05:01:38.043Z,21.81
2017-06-09T05:02:49.425Z,21.82
2017-06-09T05:03:17.631Z,21.81
2017-06-09T05:03:45.964Z,21.8
2017-06-09T05:04:14.291Z,21.82
2017-06-09T05:04:42.531Z,21.74
2017-06-09T05:05:10.635Z,21.85
2017-06-09T05:05:38.779Z,21.8
2017-06-09T05:06:07.069Z,21.8
2017-06-09T05:06:35.304Z,21.78
2017-06-09T05:07:03.647Z,21.81
2017-06-09T05:07:31.929Z,21.77
2017-06-09T05:08:43.220Z,21.74
2017-06-09T05:09:11.521Z,21.77
2017-06-09T05:09:39.857Z,21.8
2017-06-09T05:10:08.181Z,21.8
2017-06-09T05:10:36.416Z,21.77
2017-06-09T05:11:04.712Z,21.77
2017-06-09T05:11:32.949Z,21.75
2017-06-09T05:12:01.232Z,21.77
2017-06-09T05:12:29.471Z,21.8
2017-06-09T05:12:57.816Z,21.69
2017-06-09T05:13:26.192Z,21.77
2017-06-09T05:14:37.572Z,21.75
2017-06-09T05:15:05.871Z,21.77
2017-06-09T05:15:34.208Z,21.74
2017-06-09T05:16:02.438Z,21.73
2017-06-09T05:16:30.574Z,21.77
2017-06-09T05:16:58.863Z,21.69
2017-06-09T05:17:27.190Z,21.73
2017-06-09T05:17:55.483Z,21.73
2017-06-09T05:18:23.720Z,21.67
2017-06-09T05:18:52.064Z,21.73
2017-06-09T05:19:20.442Z,21.67
2017-06-09T05:20:31.753Z,21.74
2017-06-09T05:20:59.961Z,21.73
2017-06-09T05:21:28.295Z,21.73
2017-06-09T05:21:56.620Z,21.73
2017-06-09T05:22:24.755Z,21.67
2017-06-09T05:22:52.950Z,21.65
2017-06-09T05:23:21.187Z,21.59
2017-06-09T05:23:49.476Z,21.65
2017-06-09T05:24:17.802Z,21.63
2017-06-09T05:24:46.145Z,21.67
2017-06-09T05:25:14.428Z,21.6
2017-06-09T05:26:25.814Z,21.77
2017-06-09T05:26:54.021Z,21.74
2017-06-09T05:27:22.262Z,21.65
2017-06-09T05:27:50.493Z,21.69
2017-06-09T05:28:18.811Z,21.75
2017-06-09T05:28:47.096Z,21.69
2017-06-09T05:29:15.422Z,21.62
2017-06-09T05:29:43.710Z,21.67
2017-06-09T05:30:11.946Z,21.67
2017-06-09T05:30:40.290Z,21.63
2017-06-09T05:31:08.567Z,21.65
2017-06-09T05:32:19.955Z,21.66
2017-06-09T05:32:48.068Z,21.55
2017-06-09T05:33:16.311Z,21.55
2017-06-09T05:33:44.636Z,21.55
2017-06-09T05:34:12.955Z,21.56
2017-06-09T05:34:41.150Z,21.58
2017-06-09T05:35:09.478Z,21.59
2017-06-09T05:35:37.763Z,21.53
2017-06-09T05:36:06.000Z,21.59
2017-06-09T05:36:34.251Z,21.63
2017-06-09T05:37:02.629Z,21.58
2017-06-09T05:38:14.015Z,21.51
2017-06-09T05:38:42.224Z,21.58
2017-06-09T05:39:10.464Z,21.58
2017-06-09T05:39:38.786Z,21.58
2017-06-09T05:40:07.112Z,21.6
2017-06-09T05:40:35.399Z,21.51
2017-06-09T05:41:03.727Z,21.58
2017-06-09T05:41:31.914Z,21.53
2017-06-09T05:42:00.148Z,21.6
2017-06-09T05:42:28.490Z,21.62
2017-06-09T05:42:56.685Z,21.55
2017-06-09T05:44:07.930Z,21.6
2017-06-09T05:44:36.234Z,21.5
2017-06-09T05:45:04.575Z,21.56
2017-06-09T05:45:32.801Z,21.47
2017-06-09T05:46:01.126Z,21.53
2017-06-09T05:46:29.453Z,21.48
2017-06-09T05:46:57.556Z,21.5
2017-06-09T05:47:25.837Z,21.53
2017-06-09T05:47:54.071Z,21.58
2017-06-09T05:48:22.228Z,21.62
2017-06-09T05:48:50.507Z,21.56
2017-06-09T05:50:01.897Z,21.45
2017-06-09T05:50:30.101Z,21.45
2017-06-09T05:50:58.435Z,21.48
2017-06-09T05:51:26.760Z,21.56
2017-06-09T05:51:54.989Z,21.47
2017-06-09T05:52:23.275Z,21.44
2017-06-09T05:52:51.604Z,21.55
2017-06-09T05:53:19.801Z,21.45
2017-06-09T05:53:48.129Z,21.44
2017-06-09T05:54:16.463Z,21.45
2017-06-09T05:54:44.843Z,21.48
2017-06-09T05:55:56.134Z,21.43
2017-06-09T05:56:24.340Z,21.44
2017-06-09T05:56:52.675Z,21.51
2017-06-09T05:57:20.811Z,21.45
2017-06-09T05:57:49.130Z,21.55
2017-06-09T05:58:17.235Z,21.48
2017-06-09T05:58:45.459Z,21.51
2017-06-09T05:59:13.748Z,21.44
2017-06-09T05:59:42.080Z,21.41
2017-06-09T06:00:10.421Z,21.48
2017-06-09T06:00:38.800Z,21.5
2017-06-09T06:01:50.089Z,21.48
2017-06-09T06:02:18.297Z,21.43
2017-06-09T06:02:46.634Z,21.5
2017-06-09T06:03:14.859Z,21.56
2017-06-09T06:03:43.088Z,21.56
2017-06-09T06:04:11.283Z,21.5
2017-06-09T06:04:39.416Z,21.53
2017-06-09T06:05:07.701Z,21.56
2017-06-09T06:05:36.039Z,21.51
2017-06-09T06:06:04.286Z,21.56
2017-06-09T06:06:32.566Z,21.55
2017-06-09T06:07:43.948Z,21.62
2017-06-09T06:08:12.155Z,21.5
2017-06-09T06:08:40.490Z,21.59
2017-06-09T06:09:08.629Z,21.55
2017-06-09T06:09:36.673Z,21.66
2017-06-09T06:10:04.869Z,21.58
2017-06-09T06:10:33.105Z,21.55
2017-06-09T06:11:01.396Z,21.59
2017-06-09T06:11:29.540Z,21.58
2017-06-09T06:11:57.886Z,21.53
2017-06-09T06:12:26.262Z,21.59
2017-06-09T06:13:37.645Z,21.55
2017-06-09T06:14:05.760Z,21.45
2017-06-09T06:14:34.093Z,21.48
2017-06-09T06:15:02.415Z,21.48
2017-06-09T06:15:30.557Z,21.43
2017-06-09T06:15:58.839Z,21.4
2017-06-09T06:16:26.974Z,21.32
2017-06-09T06:16:55.264Z,21.34
2017-06-09T06:17:23.502Z,21.29
2017-06-09T06:17:51.841Z,21.35
2017-06-09T06:18:20.208Z,21.29
2017-06-09T06:19:31.593Z,21.3
2017-06-09T06:19:59.725Z,21.16
2017-06-09T06:20:28.063Z,21.23
2017-06-09T06:20:56.291Z,21.29
2017-06-09T06:21:24.518Z,21.2
2017-06-09T06:21:52.713Z,21.29
2017-06-09T06:22:20.945Z,21.19
2017-06-09T06:22:49.232Z,21.16
2017-06-09T06:23:17.467Z,21.19
2017-06-09T06:23:45.810Z,21.16
2017-06-09T06:24:14.089Z,21.13
2017-06-09T06:25:25.473Z,21.11
2017-06-09T06:25:53.775Z,21.13
2017-06-09T06:26:22.108Z,21.07
2017-06-09T06:26:50.436Z,21.13
2017-06-09T06:27:18.663Z,21.03
2017-06-09T06:27:46.952Z,21.04
2017-06-09T06:28:15.278Z,21.04
2017-06-09T06:28:43.565Z,21.13
2017-06-09T06:29:11.891Z,21.16
2017-06-09T06:29:40.230Z,21.08
2017-06-09T06:30:08.600Z,21.16
2017-06-09T06:31:19.988Z,21.16
2017-06-09T06:31:48.197Z,21.03
2017-06-09T06:32:16.439Z,21.03
2017-06-09T06:32:44.604Z,21.03
2017-06-09T06:33:12.739Z,21.07
2017-06-09T06:33:40.930Z,21.07
2017-06-09T06:34:09.155Z,21.03
2017-06-09T06:34:37.436Z,21.01
2017-06-09T06:35:05.574Z,21.08
2017-06-09T06:35:33.921Z,21
2017-06-09T06:36:02.297Z,21
2017-06-09T06:37:13.682Z,21.07
2017-06-09T06:37:41.886Z,21.01
2017-06-09T06:38:10.222Z,21.05
2017-06-09T06:38:38.453Z,21.03
2017-06-09T06:39:06.591Z,21.04
2017-06-09T06:39:34.789Z,21.03
2017-06-09T06:40:03.108Z,20.98
2017-06-09T06:40:31.303Z,21
2017-06-09T06:40:59.445Z,21.04
2017-06-09T06:41:27.783Z,20.95
2017-06-09T06:41:56.157Z,21.05
2017-06-09T06:43:07.253Z,20.98
2017-06-09T06:43:35.370Z,21.03
2017-06-09T06:44:03.609Z,20.9
2017-06-09T06:44:31.746Z,20.95
2017-06-09T06:44:59.880Z,21.03
2017-06-09T06:45:27.890Z,21
2017-06-09T06:45:56.209Z,21.01
2017-06-09T06:46:24.487Z,20.95
2017-06-09T06:46:52.818Z,21
2017-06-09T06:47:21.152Z,21
2017-06-09T06:47:49.435Z,21.04
2017-06-09T06:49:00.724Z,21.04
2017-06-09T06:49:28.746Z,20.83
2017-06-09T06:49:57.078Z,20.85
2017-06-09T06:50:25.210Z,20.89
2017-06-09T06:50:53.439Z,20.8
2017-06-09T06:51:21.536Z,20.85
2017-06-09T06:51:49.759Z,20.85
2017-06-09T06:52:18.047Z,20.8
2017-06-09T06:52:46.370Z,20.75
2017-06-09T06:53:14.615Z,20.86
2017-06-09T06:53:42.886Z,20.75
2017-06-09T06:54:54.178Z,20.7
2017-06-09T06:55:22.381Z,20.73
2017-06-09T06:55:50.622Z,20.74